Time;durP1;ratioP1;P1;durP2;ratioP2;P2;SDS_P1;SDS_P2;PMS_P1;PMS_P2;Temp;Humidity;BMP_temperature;BMP_pressure;BME280_temperature;BME280_humidity;BME280_pressure;Samples;Min_cycle;Max_cycle;Signal;HPM_P1;HPM_P2
2024/03/10 00:01:03;;;;;;;23.55;15.20;;;;;;;7.09;100.00;69176.81;5098342;28;20148;-50
2024/03/10 00:03:34;;;;;;;;;;;;;;;7.04;100.00;69173.00;5095315;28;20027;-49
2024/03/10 00:06:03;;;;;;;24.40;15.00;;;;;;;7.02;100.00;69170.69;5100200;28;19951;-53
2024/03/10 00:08:31;;;;;;;24.23;15.45;;;;;;;6.98;100.00;69164.03;5104339;28;20390;-51
2024/03/10 00:11:00;;;;;;;25.23;15.77;;;;;;;6.93;100.00;69161.38;5090586;28;20040;-50
2024/03/10 00:13:29;;;;;;;24.13;15.20;;;;;;;6.91;100.00;69155.88;5089096;28;20682;-51
2024/03/10 00:15:58;;;;;;;24.55;15.48;;;;;;;6.90;100.00;69157.31;5088303;28;20089;-50
2024/03/10 00:18:28;;;;;;;23.73;15.30;;;;;;;6.89;100.00;69156.13;5091430;28;20058;-50
2024/03/10 00:20:57;;;;;;;23.90;15.68;;;;;;;6.86;100.00;69153.22;5093754;28;20096;-53
2024/03/10 00:23:26;;;;;;;24.17;14.85;;;;;;;6.88;100.00;69155.53;5110286;28;20063;-52
2024/03/10 00:25:54;;;;;;;25.70;15.68;;;;;;;6.88;100.00;69158.13;5082843;28;20044;-49
2024/03/10 00:28:23;;;;;;;22.83;15.27;;;;;;;6.90;100.00;69159.91;5098557;28;20044;-50
2024/03/10 00:30:52;;;;;;;25.00;16.48;;;;;;;6.90;100.00;69159.91;5102402;28;20166;-49
2024/03/10 00:33:20;;;;;;;24.38;16.00;;;;;;;6.97;100.00;69170.03;5102775;28;20558;-49
2024/03/10 00:35:51;;;;;;;24.67;16.17;;;;;;;6.92;100.00;69162.22;5100314;28;20138;-50
2024/03/10 00:38:19;;;;;;;26.20;16.42;;;;;;;6.89;100.00;69156.13;5104500;28;20055;-50
2024/03/10 00:40:48;;;;;;;26.70;16.38;;;;;;;6.89;100.00;69159.31;5103162;28;20051;-50
2024/03/10 00:43:17;;;;;;;27.40;16.70;;;;;;;6.86;100.00;69155.25;5079419;28;20036;-51
2024/03/10 00:45:46;;;;;;;26.67;16.30;;;;;;;6.91;100.00;69158.47;5088541;28;20039;-50
2024/03/10 00:48:15;;;;;;;23.95;15.90;;;;;;;6.90;100.00;69163.06;5091648;28;20668;-51
2024/03/10 00:50:46;;;;;;;25.88;16.85;;;;;;;6.87;100.00;69156.41;5095567;28;20079;-49
2024/03/10 00:53:16;;;;;;;25.25;16.98;;;;;;;6.86;100.00;69155.81;5096797;28;20934;-52
2024/03/10 00:55:46;;;;;;;24.77;16.92;;;;;;;6.88;100.00;69158.13;5091562;28;20394;-51
2024/03/10 00:58:15;;;;;;;25.77;16.77;;;;;;;6.86;100.00;69155.81;5097324;28;20417;-52
2024/03/10 01:00:43;;;;;;;26.70;16.17;;;;;;;6.86;100.00;69157.84;5094631;28;20135;-51
2024/03/10 01:03:12;;;;;;;24.65;16.45;;;;;;;6.86;100.00;69155.81;5097839;28;20036;-52
2024/03/10 01:05:41;;;;;;;28.80;16.67;;;;;;;6.88;100.00;69157.56;5083528;28;20044;-49
2024/03/10 01:08:10;;;;;;;25.40;16.35;;;;;;;6.83;100.00;69149.75;5098724;28;20043;-52
2024/03/10 01:10:40;;;;;;;25.58;16.75;;;;;;;6.81;100.00;69150.00;5089274;28;20060;-50
2024/03/10 01:13:09;;;;;;;23.95;15.27;;;;;;;6.80;100.00;69148.84;5098147;28;20051;-53
2024/03/10 01:15:37;;;;;;;25.90;16.13;;;;;;;6.75;100.00;69141.00;5104870;28;20100;-52
2024/03/10 01:18:06;;;;;;;25.63;16.38;;;;;;;6.76;100.00;69144.19;5092459;28;20446;-49
2024/03/10 01:20:35;;;;;;;26.27;16.23;;;;;;;6.77;100.00;69145.34;5095322;28;20365;-52
2024/03/10 01:23:04;;;;;;;26.52;16.92;;;;;;;6.77;100.00;69145.34;5099125;28;20112;-48
2024/03/10 01:25:33;;;;;;;27.05;16.60;;;;;;;6.75;100.00;69145.63;5105864;28;20363;-51
2024/03/10 01:28:05;;;;;;;24.45;16.60;;;;;;;6.72;100.00;69139.53;5098217;28;20437;-48
2024/03/10 01:30:34;;;;;;;29.00;17.02;;;;;;;6.76;100.00;69144.78;5098293;28;20047;-49
2024/03/10 01:33:02;;;;;;;25.70;16.73;;;;;;;6.71;100.00;69138.94;5088618;28;20047;-50
2024/03/10 01:35:31;;;;;;;23.95;16.45;;;;;;;6.71;100.00;69135.78;5106169;28;20131;-52
2024/03/10 01:38:00;;;;;;;27.15;16.98;;;;;;;6.68;100.00;69137.47;5108077;28;20059;-52
2024/03/10 01:40:28;;;;;;;25.83;17.10;;;;;;;6.65;100.00;69134.56;5104719;28;20054;-52
2024/03/10 01:42:57;;;;;;;28.55;17.95;;;;;;;6.69;100.00;69136.03;5095689;28;20048;-50
2024/03/10 01:45:27;;;;;;;26.90;17.25;;;;;;;6.65;100.00;69128.78;5098993;28;20047;-51
2024/03/10 01:47:58;;;;;;;25.80;17.33;;;;;;;6.62;100.00;69122.72;5101306;28;20120;-48
2024/03/10 01:50:27;;;;;;;25.45;17.48;;;;;;;6.53;100.00;69121.19;5088793;28;20101;-48
2024/03/10 01:52:56;;;;;;;28.17;17.33;;;;;;;6.51;100.00;69116.25;5103796;28;20409;-50
2024/03/10 01:55:25;;;;;;;25.67;17.08;;;;;;;6.55;100.00;69117.75;5106267;28;20079;-51
2024/03/10 01:57:54;;;;;;;30.35;17.30;;;;;;;6.61;100.00;69124.72;5096833;28;20054;-50
2024/03/10 02:00:23;;;;;;;26.90;17.05;;;;;;;6.58;100.00;69121.22;5094549;28;20044;-51
2024/03/10 02:02:55;;;;;;;30.25;17.60;;;;;;;6.56;100.00;69116.91;5106321;28;20603;-49
2024/03/10 02:05:24;;;;;;;26.95;16.73;;;;;;;6.57;100.00;69123.25;5088527;28;20043;-49
2024/03/10 02:07:53;;;;;;;26.40;17.17;;;;;;;6.56;100.00;69122.06;5098371;28;20126;-50
2024/03/10 02:10:22;;;;;;;27.73;17.30;;;;;;;6.58;100.00;69126.41;5096154;28;20433;-53
2024/03/10 02:12:51;;;;;;;25.13;16.48;;;;;;;6.57;100.00;69120.66;5098221;28;20489;-50
2024/03/10 02:15:22;;;;;;;26.67;17.35;;;;;;;6.55;100.00;69120.91;5112829;28;20048;-50
2024/03/10 02:17:52;;;;;;;27.63;16.23;;;;;;;6.52;100.00;69114.25;5093781;28;20448;-50
2024/03/10 02:20:21;;;;;;;25.83;16.55;;;;;;;6.53;100.00;69118.59;5101169;28;20517;-50
2024/03/10 02:22:50;;;;;;;25.38;16.73;;;;;;;6.53;100.00;69112.81;5093690;28;20513;-52
2024/03/10 02:25:24;;;;;;;27.77;17.88;;;;;;;6.51;100.00;69115.69;5100294;28;20506;-50
2024/03/10 02:27:54;;;;;;;29.00;17.88;;;;;;;6.53;100.00;69116.00;5095667;28;20032;-46
2024/03/10 02:30:31;;;;;;;27.15;16.95;;;;;;;6.48;100.00;69112.19;5105473;28;20043;-46
2024/03/10 02:49:34;;;;;;;27.60;17.25;;;;;;;6.37;100.00;69097.38;5096987;28;20384;-50
2024/03/10 02:52:03;;;;;;;27.25;17.88;;;;;;;6.39;100.00;69104.88;5092960;28;20542;-49
2024/03/10 02:54:32;;;;;;;29.10;17.85;;;;;;;6.34;100.00;69091.88;5107255;28;20491;-50
2024/03/10 02:57:00;;;;;;;27.85;18.10;;;;;;;6.39;100.00;69102.91;5108225;28;20130;-50
2024/03/10 02:59:30;;;;;;;28.75;18.40;;;;;;;6.36;100.00;69101.97;5107987;28;20051;-51
2024/03/10 03:01:59;;;;;;;28.50;17.88;;;;;;;6.34;100.00;69097.06;5100671;28;20052;-48
2024/03/10 03:04:28;;;;;;;31.52;17.83;;;;;;;6.38;100.00;69096.53;5092722;28;20044;-50
2024/03/10 03:06:57;;;;;;;27.88;18.15;;;;;;;6.34;100.00;69093.88;5092997;28;20402;-50
2024/03/10 03:09:25;;;;;;;27.70;17.65;;;;;;;6.35;100.00;69097.66;5100022;28;20048;-52
2024/03/10 03:11:54;;;;;;;28.65;18.35;;;;;;;6.37;100.00;69094.81;5109799;28;20042;-50
2024/03/10 03:14:23;;;;;;;27.25;17.98;;;;;;;6.37;100.00;69097.38;5101150;27;20051;-49
2024/03/10 03:16:54;;;;;;;26.00;16.50;;;;;;;6.36;100.00;69101.41;5097132;28;20040;-50
2024/03/10 03:19:23;;;;;;;27.92;17.38;;;;;;;6.35;100.00;69095.63;5091458;28;20055;-53
2024/03/10 03:21:51;;;;;;;25.42;17.27;;;;;;;6.37;100.00;69099.97;5103871;28;20063;-50
2024/03/10 03:24:20;;;;;;;29.10;18.17;;;;;;;6.36;100.00;69099.38;5094485;28;20051;-50
2024/03/10 03:26:49;;;;;;;28.20;18.00;;;;;;;6.33;100.00;69095.34;5097915;28;20043;-52
2024/03/10 03:29:17;;;;;;;27.00;18.52;;;;;;;6.32;100.00;69096.75;5088275;28;20040;-49
2024/03/10 03:31:46;;;;;;;26.90;18.23;;;;;;;6.35;100.00;69097.66;5103242;28;20044;-51
2024/03/10 03:34:16;;;;;;;28.02;17.85;;;;;;;6.30;100.00;69091.81;5103311;28;20047;-54
2024/03/10 03:36:45;;;;;;;28.15;18.77;;;;;;;6.25;100.00;69084.59;5091309;28;20491;-50
2024/03/10 03:39:13;;;;;;;30.33;18.15;;;;;;;6.24;100.00;69082.84;5099053;28;20050;-54
2024/03/10 03:41:42;;;;;;;28.13;18.60;;;;;;;6.21;100.00;69082.53;5101280;28;20051;-48
2024/03/10 03:44:11;;;;;;;27.75;17.80;;;;;;;6.17;100.00;69080.47;5103574;28;20040;-49
2024/03/10 03:46:40;;;;;;;28.17;18.33;;;;;;;6.18;100.00;69079.03;5093212;28;21772;-52
2024/03/10 03:49:08;;;;;;;28.65;18.52;;;;;;;6.12;100.00;69072.06;5097862;28;20043;-51
2024/03/10 03:51:39;;;;;;;27.63;17.80;;;;;;;6.16;100.00;69079.31;5108590;28;20048;-51
2024/03/10 03:54:07;;;;;;;28.90;18.23;;;;;;;6.13;100.00;69070.63;5099630;28;20540;-51
2024/03/10 03:56:36;;;;;;;29.92;19.73;;;;;;;6.11;100.00;69070.91;5088628;28;20047;-49
2024/03/10 03:59:05;;;;;;;29.70;18.40;;;;;;;6.08;100.00;69064.81;5090349;28;20410;-51
2024/03/10 04:01:34;;;;;;;29.05;18.25;;;;;;;6.05;100.00;69063.91;5092749;28;20075;-52
2024/03/10 04:04:04;;;;;;;27.50;18.63;;;;;;;6.00;100.00;69056.09;5094250;28;20039;-52
2024/03/10 04:06:33;;;;;;;29.95;17.65;;;;;;;6.02;100.00;69060.44;5106903;28;20047;-54
2024/03/10 04:09:03;;;;;;;29.35;18.73;;;;;;;5.99;100.00;69054.34;5094762;28;20035;-52
2024/03/10 04:11:32;;;;;;;28.38;18.58;;;;;;;5.97;100.00;69052.00;5101825;28;20059;-52
2024/03/10 04:14:02;;;;;;;29.30;19.00;;;;;;;5.93;100.00;69053.69;5082697;28;20058;-51
2024/03/10 04:16:31;;;;;;;27.60;18.50;;;;;;;5.91;100.00;69046.19;5097264;28;20071;-49
2024/03/10 04:19:00;;;;;;;28.38;18.92;;;;;;;5.87;100.00;69043.53;5102814;28;20656;-49
2024/03/10 04:21:30;;;;;;;32.35;19.60;;;;;;;5.92;100.00;69052.53;5102322;28;20135;-52
2024/03/10 04:23:59;;;;;;;27.05;18.63;;;;;;;5.86;100.00;69044.97;5109362;28;20526;-50
2024/03/10 04:26:29;;;;;;;28.50;17.77;;;;;;;5.84;100.00;69040.63;5104036;28;20754;-49
2024/03/10 04:28:58;;;;;;;30.85;19.38;;;;;;;5.81;100.00;69037.16;5095405;28;20477;-53
2024/03/10 04:31:28;;;;;;;32.05;19.13;;;;;;;5.79;100.00;69034.81;5103861;28;20043;-51
2024/03/10 04:33:57;;;;;;;30.02;18.98;;;;;;;5.76;100.00;69031.34;5101245;28;20051;-50
2024/03/10 04:36:28;;;;;;;28.42;18.50;;;;;;;5.79;100.00;69034.25;5089169;28;20103;-49
2024/03/10 04:38:57;;;;;;;29.20;18.85;;;;;;;5.76;100.00;69034.50;5095865;28;20084;-50
2024/03/10 04:41:27;;;;;;;29.25;18.73;;;;;;;5.72;100.00;69024.66;5095821;28;20102;-45
2024/03/10 04:43:58;;;;;;;28.25;18.35;;;;;;;5.69;100.00;69023.22;5101747;28;20055;-45
2024/03/10 04:46:27;;;;;;;27.67;18.08;;;;;;;5.63;100.00;69016.22;5107816;28;20051;-47
2024/03/10 04:48:57;;;;;;;29.92;18.38;;;;;;;5.64;100.00;69019.97;5092963;28;20052;-46
2024/03/10 04:51:26;;;;;;;30.00;19.60;;;;;;;5.56;100.00;69006.66;5107677;28;20571;-49
2024/03/10 04:53:54;;;;;;;27.92;18.67;;;;;;;5.55;100.00;69007.50;5102144;28;20126;-47
2024/03/10 04:56:23;;;;;;;29.40;19.08;;;;;;;5.51;100.00;69000.28;5106300;28;20118;-48
2024/03/10 04:58:53;;;;;;;32.42;18.60;;;;;;;5.51;100.00;69003.44;5106535;28;20063;-48
2024/03/10 05:01:23;;;;;;;31.98;19.20;;;;;;;5.50;100.00;69001.69;5100429;28;20060;-45
2024/03/10 05:03:53;;;;;;;29.95;18.60;;;;;;;5.46;100.00;68997.06;5098487;28;20502;-48
2024/03/10 05:06:21;;;;;;;30.52;18.48;;;;;;;5.45;100.00;68995.88;5103508;28;20040;-46
2024/03/10 05:08:50;;;;;;;29.25;19.05;;;;;;;5.45;100.00;68996.47;5105921;28;20055;-48
2024/03/10 05:11:18;;;;;;;27.88;18.98;;;;;;;5.40;100.00;68988.66;5112522;28;20048;-46
2024/03/10 05:13:47;;;;;;;28.55;18.00;;;;;;;5.38;100.00;68988.91;5108113;28;20051;-48
2024/03/10 05:16:17;;;;;;;30.45;18.98;;;;;;;5.39;100.00;68992.66;5102592;28;20039;-46
2024/03/10 05:18:47;;;;;;;29.33;17.98;;;;;;;5.35;100.00;68982.25;5097187;28;20040;-47
2024/03/10 05:21:16;;;;;;;29.23;18.88;;;;;;;5.33;100.00;68983.09;5100916;28;20119;-44
2024/03/10 05:23:44;;;;;;;29.25;17.88;;;;;;;5.33;100.00;68985.69;5107505;28;20050;-44
2024/03/10 05:26:13;;;;;;;30.35;18.70;;;;;;;5.34;100.00;68986.25;5102078;28;20420;-44
2024/03/10 05:28:42;;;;;;;30.88;17.70;;;;;;;5.36;100.00;68984.00;5112864;28;20047;-47
2024/03/10 05:31:27;;;;;;;29.60;17.55;;;;;;;5.35;100.00;68984.84;5105312;28;20043;-47
2024/03/10 05:33:59;;;;;;;30.73;17.90;;;;;;;5.30;100.00;68979.59;5091505;28;20058;-46
2024/03/10 05:36:28;;;;;;;29.35;17.55;;;;;;;5.31;100.00;68977.59;5094657;28;20071;-47
2024/03/10 05:38:57;;;;;;;29.95;17.83;;;;;;;5.32;100.00;68976.19;5108027;28;20044;-44
2024/03/10 05:41:26;;;;;;;31.00;19.15;;;;;;;5.30;100.00;68979.03;5101799;28;20046;-44
2024/03/10 05:43:54;;;;;;;28.13;17.85;;;;;;;5.27;100.00;68978.13;5106153;28;20040;-45
2024/03/10 05:46:23;;;;;;;32.72;19.42;;;;;;;5.24;100.00;68973.22;5096915;28;20054;-45
2024/03/10 05:48:52;;;;;;;31.70;19.05;;;;;;;5.24;100.00;68968.03;5109099;28;20469;-45
2024/03/10 05:51:23;;;;;;;29.80;17.90;;;;;;;5.19;100.00;68964.25;5102071;28;20043;-46
2024/03/10 05:53:51;;;;;;;30.77;17.85;;;;;;;5.17;100.00;68965.09;5095453;28;20043;-46
2024/03/10 05:56:20;;;;;;;31.85;19.48;;;;;;;5.14;100.00;68958.41;5094299;28;20036;-47
2024/03/10 05:58:50;;;;;;;30.42;18.27;;;;;;;5.19;100.00;68964.81;5101660;28;20176;-46
2024/03/10 06:01:23;;;;;;;32.83;19.08;;;;;;;5.18;100.00;68965.66;5100935;28;20070;-46
2024/03/10 06:03:52;;;;;;;29.70;18.10;;;;;;;5.16;100.00;68961.34;5088771;28;20474;-45
2024/03/10 06:06:23;;;;;;;31.17;18.45;;;;;;;5.14;100.00;68959.03;5098147;28;20408;-45
2024/03/10 06:08:51;;;;;;;30.33;18.95;;;;;;;5.11;100.00;68957.53;5111674;28;20051;-45
2024/03/10 06:11:20;;;;;;;28.58;17.92;;;;;;;5.11;100.00;68957.53;5104796;28;20040;-47
2024/03/10 06:13:49;;;;;;;29.67;18.50;;;;;;;5.12;100.00;68958.69;5103591;28;20105;-47
2024/03/10 06:16:18;;;;;;;33.88;19.25;;;;;;;5.07;100.00;68954.06;5099682;28;20549;-47
2024/03/10 06:27:09;;;;;;;30.13;18.33;;;;;;;5.11;100.00;68957.53;5090324;28;20070;-44
2024/03/10 06:29:38;;;;;;;31.15;19.17;;;;;;;5.13;100.00;68957.84;5103593;28;20098;-46
2024/03/10 06:32:07;;;;;;;29.52;18.83;;;;;;;5.13;100.00;68957.84;5102109;28;20134;-45
2024/03/10 06:34:37;;;;;;;30.25;18.08;;;;;;;5.14;100.00;68959.03;5100959;28;20487;-47
2024/03/10 06:37:07;;;;;;;29.88;18.42;;;;;;;5.17;100.00;68959.34;5088956;28;20036;-45
2024/03/10 06:39:36;;;;;;;30.02;17.88;;;;;;;5.17;100.00;68965.09;5089511;28;20048;-45
2024/03/10 06:42:06;;;;;;;29.50;18.08;;;;;;;5.14;100.00;68955.84;5108413;28;20078;-45
2024/03/10 06:44:36;;;;;;;30.90;18.35;;;;;;;5.18;100.00;68968.25;5103738;28;20474;-45
2024/03/10 06:47:05;;;;;;;27.33;17.30;;;;;;;5.20;100.00;68968.00;5101103;28;20530;-47
2024/03/10 06:49:33;;;;;;;29.60;18.25;;;;;;;5.22;100.00;68975.47;5100062;28;20707;-46
2024/03/10 06:52:02;;;;;;;31.77;18.25;;;;;;;5.30;100.00;68981.63;5100937;28;20043;-48
2024/03/10 06:54:32;;;;;;;32.35;19.35;;;;;;;5.27;100.00;68973.53;5100462;28;20048;-45
2024/03/10 06:57:03;;;;;;;31.67;19.23;;;;;;;5.26;100.00;68974.94;5092897;28;20047;-45
2024/03/10 06:59:32;;;;;;;28.60;17.95;;;;;;;5.28;100.00;68974.13;5106061;28;20523;-45
2024/03/10 07:02:01;;;;;;;28.85;19.38;;;;;;;5.26;100.00;68974.94;5102548;28;20040;-47
2024/03/10 07:04:29;;;;;;;27.90;17.77;;;;;;;5.31;100.00;68980.78;5105336;28;20059;-46
2024/03/10 07:06:58;;;;;;;28.65;17.65;;;;;;;5.34;100.00;68986.25;5100375;28;20483;-47
2024/03/10 07:09:27;;;;;;;30.02;18.13;;;;;;;5.31;100.00;68980.78;5104176;28;20067;-45
2024/03/10 07:11:57;;;;;;;30.95;17.85;;;;;;;5.33;100.00;68982.50;5109472;28;20071;-45
2024/03/10 07:14:26;;;;;;;29.85;18.42;;;;;;;5.34;100.00;68983.69;5091212;28;20055;-46
2024/03/10 07:16:55;;;;;;;30.70;18.30;;;;;;;5.37;100.00;68992.34;5107432;28;20048;-47
2024/03/10 07:19:23;;;;;;;30.77;18.48;;;;;;;5.44;100.00;68992.13;5106813;28;20047;-44
2024/03/10 07:21:52;;;;;;;30.08;17.83;;;;;;;5.51;100.00;69003.44;5100227;28;20044;-47
2024/03/10 07:24:20;;;;;;;27.20;17.80;;;;;;;5.49;100.00;69000.53;5099920;28;20033;-45
2024/03/10 07:26:49;;;;;;;28.33;17.98;;;;;;;5.54;100.00;69008.94;5107324;28;20562;-46
2024/03/10 07:29:19;;;;;;;26.83;16.90;;;;;;;5.62;100.00;69010.47;5084486;28;20494;-48
2024/03/10 07:31:48;;;;;;;28.20;16.67;;;;;;;5.62;100.00;69015.66;5091906;28;20055;-47
2024/03/10 07:34:17;;;;;;;28.52;17.25;;;;;;;5.75;100.00;69030.75;5099523;28;20043;-45
2024/03/10 07:36:46;;;;;;;29.52;17.75;;;;;;;5.74;100.00;69029.59;5091947;28;20050;-47
2024/03/10 07:39:14;;;;;;;25.90;16.23;;;;;;;5.74;100.00;69026.44;5106712;28;20048;-47
2024/03/10 07:41:43;;;;;;;29.08;17.42;;;;;;;5.76;100.00;69031.34;5105575;28;20055;-46
2024/03/10 07:44:12;;;;;;;27.38;17.65;;;;;;;5.84;100.00;69037.47;5100341;28;20051;-50
2024/03/10 07:46:42;;;;;;;26.83;16.00;;;;;;;5.88;100.00;69042.69;5105276;28;20058;-48
2024/03/10 07:49:11;;;;;;;26.42;16.30;;;;;;;5.96;100.00;69051.44;5094872;28;20060;-45
2024/03/10 07:51:40;;;;;;;27.10;16.33;;;;;;;6.07;100.00;69066.25;5109269;28;20063;-49
2024/03/10 07:54:09;;;;;;;28.45;17.15;;;;;;;6.13;100.00;69067.47;5098834;28;20140;-52
2024/03/10 07:56:39;;;;;;;26.67;16.77;;;;;;;6.24;100.00;69086.03;5093499;28;20102;-49
2024/03/10 07:59:08;;;;;;;26.80;16.83;;;;;;;6.38;100.00;69098.53;5094961;28;20080;-52
2024/03/10 08:01:37;;;;;;;25.65;16.67;;;;;;;6.55;100.00;69120.91;5095197;28;20051;-49
2024/03/10 08:04:07;;;;;;;24.05;15.93;;;;;;;6.72;100.00;69142.72;5099060;28;20051;-50
2024/03/10 08:06:36;;;;;;;24.33;15.75;;;;;;;6.89;100.00;69156.72;5096227;28;20042;-50
2024/03/10 08:09:05;;;;;;;23.52;15.65;;;;;;;7.06;100.00;69167.53;5099162;28;20066;-51
2024/03/10 08:11:34;;;;;;;25.75;15.85;;;;;;;7.21;100.00;69192.22;5091943;28;20036;-49
2024/03/10 08:14:04;;;;;;;25.13;16.08;;;;;;;7.36;100.00;69209.09;5099387;28;20039;-52
2024/03/10 08:16:32;;;;;;;23.80;15.65;;;;;;;7.48;100.00;69222.50;5089630;28;20032;-50
2024/03/10 08:19:01;;;;;;;24.08;15.43;;;;;;;7.63;100.00;69241.97;5103040;28;20051;-49
2024/03/10 08:21:31;;;;;;;23.98;15.48;;;;;;;7.73;100.00;69251.00;5094357;28;20036;-50
2024/03/10 08:24:00;;;;;;;23.05;14.88;;;;;;;7.70;100.00;69248.09;5106739;28;20092;-51
2024/03/10 08:26:29;;;;;;;25.02;15.90;;;;;;;7.68;100.00;69247.78;5096216;28;20121;-50
2024/03/10 08:28:57;;;;;;;22.40;14.82;;;;;;;7.64;100.00;69241.13;5089975;28;20047;-45
2024/03/10 08:31:26;;;;;;;26.67;15.32;;;;;;;7.67;100.00;69247.19;5103129;28;20035;-46
2024/03/10 08:33:55;;;;;;;25.10;15.93;;;;;;;7.64;100.00;69243.13;5103648;28;20067;-46
2024/03/10 08:36:23;;;;;;;24.85;15.63;;;;;;;7.61;100.00;69240.78;5098071;28;20446;-45
2024/03/10 08:38:54;;;;;;;25.15;15.85;;;;;;;7.62;100.00;69241.38;5113960;28;20126;-48
2024/03/10 08:41:24;;;;;;;24.90;16.05;;;;;;;7.59;100.00;69238.47;5103140;28;20070;-47
2024/03/10 08:43:53;;;;;;;26.42;15.73;;;;;;;7.68;100.00;69248.38;5101728;28;20072;-46
2024/03/10 08:46:23;;;;;;;24.95;16.17;;;;;;;7.67;100.00;69246.63;5095616;28;20047;-45
2024/03/10 08:48:51;;;;;;;24.92;15.98;;;;;;;7.71;100.00;69248.69;5092616;28;20072;-46
2024/03/10 08:51:20;;;;;;;24.92;15.95;;;;;;;7.79;100.00;69263.19;5093008;28;20035;-46
2024/03/10 08:53:49;;;;;;;24.60;16.48;;;;;;;7.93;100.00;69273.72;5094988;28;20066;-47
2024/03/10 08:56:19;;;;;;;24.75;15.90;;;;;;;8.07;100.00;69286.84;5094733;28;20048;-46
2024/03/10 08:58:50;;;;;;;23.02;15.15;;;;;;;8.25;100.00;69313.00;5106206;28;20088;-49
2024/03/10 09:01:18;;;;;;;23.10;15.85;;;;;;;8.37;100.00;69328.41;5104609;28;20114;-48
2024/03/10 09:03:48;;;;;;;25.05;15.73;;;;;;;8.53;100.00;69347.09;5100621;28;20052;-45
2024/03/10 09:06:17;;;;;;;26.08;16.38;;;;;;;8.66;100.00;69356.47;5094814;28;20552;-48
2024/03/10 09:08:46;;;;;;;24.27;15.75;;;;;;;8.75;100.00;69368.97;5095220;28;20418;-45
2024/03/10 09:11:15;;;;;;;25.50;16.48;;;;;;;8.78;100.00;69367.25;5101783;28;20036;-46
2024/03/10 09:13:45;;;;;;;24.05;15.20;;;;;;;8.83;100.00;69377.72;5097368;28;20040;-45
2024/03/10 09:16:14;;;;;;;24.67;16.42;;;;;;;8.93;100.00;69387.34;5098575;28;20561;-47
2024/03/10 09:18:42;;;;;;;24.08;16.05;;;;;;;8.97;100.00;69391.41;5109797;28;20480;-46
2024/03/10 09:21:11;;;;;;;24.52;16.27;;;;;;;8.91;100.00;69387.59;5109136;28;20075;-47
2024/03/10 09:23:40;;;;;;;24.00;16.05;;;;;;;9.04;100.00;69399.59;5095256;28;20043;-47
2024/03/10 09:26:09;;;;;;;24.00;15.95;;;;;;;9.10;100.00;69406.00;5101231;28;20046;-46
2024/03/10 09:28:37;;;;;;;24.05;16.60;;;;;;;9.15;100.00;69411.84;5110191;28;20182;-47
2024/03/10 09:31:08;;;;;;;24.23;15.57;;;;;;;9.25;100.00;69420.31;5092656;28;20842;-45
2024/03/10 09:33:38;;;;;;;24.87;16.43;;;;;;;9.36;100.00;69435.72;5089904;28;20087;-46
2024/03/10 09:36:07;;;;;;;23.65;15.27;;;;;;;9.41;100.00;69440.97;5105850;28;20104;-48
2024/03/10 09:38:36;;;;;;;23.63;15.70;;;;;;;9.47;100.00;69450.56;5104175;28;20041;-48
2024/03/10 09:41:06;;;;;;;23.65;16.23;;;;;;;9.39;100.00;69438.63;5105487;28;20135;-47
2024/03/10 09:43:34;;;;;;;23.98;17.10;;;;;;;9.53;100.00;69456.97;5099092;28;20099;-48
2024/03/10 09:46:04;;;;;;;23.02;15.38;;;;;;;9.76;100.00;69478.00;5094970;28;20390;-48
2024/03/10 09:48:34;;;;;;;24.63;16.83;;;;;;;10.03;100.00;69510.97;5100806;28;20048;-50
2024/03/10 09:51:05;;;;;;;24.17;17.08;;;;;;;10.09;100.00;69521.16;5100855;28;20043;-49
2024/03/10 09:53:35;;;;;;;25.60;17.38;;;;;;;10.06;100.00;69511.84;5104422;28;20054;-50
2024/03/10 09:56:04;;;;;;;24.85;16.25;;;;;;;10.10;100.00;69519.13;5104415;28;20043;-48
2024/03/10 09:58:38;;;;;;;25.65;17.40;;;;;;;10.17;100.00;69532.50;5091665;28;20044;-47
2024/03/10 10:01:14;;;;;;;24.20;17.67;;;;;;;10.30;100.00;69539.84;5104842;28;20046;-48
2024/03/10 10:03:49;;;;;;;24.98;17.13;;;;;;;10.31;100.00;69541.00;5103598;27;20059;-49
2024/03/10 10:06:20;;;;;;;25.15;17.67;;;;;;;10.37;100.00;69549.47;5093736;28;20114;-47
2024/03/10 10:08:54;;;;;;;25.02;17.10;;;;;;;10.40;100.00;69553.56;5109970;28;20118;-49
2024/03/10 10:11:24;;;;;;;23.98;17.10;;;;;;;10.53;100.00;69568.16;5105653;28;20510;-48
2024/03/10 10:14:14;;;;;;;24.88;17.10;;;;;;;10.56;100.00;69574.25;5093829;28;20464;-46
2024/03/10 10:16:55;;;;;;;26.63;17.58;;;;;;;10.62;100.00;69578.06;5094091;28;20124;-46
2024/03/10 10:19:27;;;;;;;23.50;16.30;;;;;;;10.64;100.00;69580.41;5100942;28;20131;-47
2024/03/10 10:21:56;;;;;;;26.25;16.80;;;;;;;10.59;100.00;69577.78;5103213;28;20152;-47
2024/03/10 10:24:25;;;;;;;27.70;17.73;;;;;;;10.74;100.00;69596.72;5098346;28;20039;-46
2024/03/10 10:27:03;;;;;;;25.00;17.98;;;;;;;10.92;100.00;69612.53;5089822;28;20062;-46
2024/03/10 10:29:48;;;;;;;25.65;16.77;;;;;;;11.14;100.00;69637.63;5096376;28;20056;-56
2024/03/10 10:32:21;;;;;;;27.92;17.75;;;;;;;11.37;100.00;69665.34;5089353;28;20587;-54
2024/03/10 10:34:56;;;;;;;24.63;16.80;;;;;;;11.55;100.00;69688.97;5104304;28;20058;-52
2024/03/10 10:37:28;;;;;;;25.63;17.33;;;;;;;11.63;100.00;69695.72;5091986;28;20052;-52
2024/03/10 10:39:57;;;;;;;23.35;16.58;;;;;;;11.55;100.00;69683.16;5097899;28;20647;-52
2024/03/10 10:42:27;;;;;;;26.42;17.60;;;;;;;11.53;100.00;69684.03;5109704;27;20048;-50
2024/03/10 10:45:03;;;;;;;25.85;16.98;;;;;;;11.45;100.00;69677.88;5101524;28;20051;-53
2024/03/10 10:47:33;;;;;;;26.80;18.00;;;;;;;11.69;100.00;69702.13;5090566;28;20058;-53
2024/03/10 10:50:10;;;;;;;23.35;16.70;;;;;;;11.98;100.00;69730.22;5097513;28;20044;-53
2024/03/10 10:52:41;;;;;;;30.77;17.60;;;;;;;12.26;100.00;69766.44;5092778;28;20050;-51
2024/03/10 10:55:11;;;;;;;26.73;17.80;;;;;;;12.41;100.00;69783.94;5109895;28;20053;-51
2024/03/10 10:57:47;;;;;;;23.20;17.42;;;;;;;12.47;100.00;69788.34;5100457;28;20031;-54
2024/03/10 11:00:27;;;;;;;25.58;17.85;;;;;;;12.70;100.00;69814.06;5100621;27;20127;-53
2024/03/10 11:03:07;;;;;;;24.48;17.23;;;;;;;12.82;100.00;69830.13;5090773;28;20074;-52
2024/03/10 11:05:37;;;;;;;23.13;15.90;;;;;;;12.66;100.00;69812.59;5100146;28;20383;-46
2024/03/10 11:08:06;;;;;;;22.40;16.80;;;;;;;12.57;100.00;69799.47;5100136;28;20129;-46
2024/03/10 11:10:45;;;;;;;23.70;16.85;;;;;;;12.53;100.00;69792.16;5094246;28;20487;-47
2024/03/10 11:13:14;;;;;;;24.67;16.45;;;;;;;12.57;100.00;69799.47;5097943;28;20051;-46
2024/03/10 11:15:44;;;;;;;24.63;17.38;;;;;;;12.49;100.00;69793.31;5097896;28;20054;-45
2024/03/10 11:18:26;;;;;;;26.50;17.02;;;;;;;12.57;100.00;69799.47;5088084;28;20125;-46
2024/03/10 11:20:58;;;;;;;25.00;16.40;;;;;;;12.41;100.00;69780.75;5108143;28;20502;-48
2024/03/10 11:23:36;;;;;;;24.90;17.43;;;;;;;12.65;100.00;69806.19;5099998;28;20142;-48
2024/03/10 11:26:09;;;;;;;23.83;16.45;;;;;;;13.18;100.00;69863.19;5102450;28;21126;-48
2024/03/10 11:28:52;;;;;;;23.40;15.60;;;;;;;13.58;100.00;69908.84;5096570;28;20056;-49
2024/03/10 11:31:39;;;;;;;22.25;16.08;;;;;;;13.67;100.00;69924.63;5087637;28;20065;-47
2024/03/10 11:34:10;;;;;;;23.52;16.83;;;;;;;13.72;100.00;69926.69;5096111;28;20390;-46
2024/03/10 11:36:41;;;;;;;25.65;18.23;;;;;;;13.79;96.99;69934.84;5089149;28;20047;-47
2024/03/10 11:39:19;;;;;;;21.80;16.75;;;;;;;13.97;96.75;69955.91;5092714;28;20056;-46
2024/03/10 11:41:50;;;;;;;23.48;16.60;;;;;;;13.87;97.10;69944.22;5096769;28;20105;-48
2024/03/10 11:44:22;;;;;;;22.30;16.92;;;;;;;13.96;95.60;69949.50;5092300;28;20459;-47
2024/03/10 11:46:53;;;;;;;22.90;17.00;;;;;;;13.76;97.13;69933.97;5096365;28;20043;-49
2024/03/10 11:49:22;;;;;;;21.77;16.08;;;;;;;13.80;99.06;69936.59;5093508;28;20395;-45
2024/03/10 11:51:52;;;;;;;25.17;16.73;;;;;;;13.95;98.56;69953.56;5091157;28;20793;-47
2024/03/10 11:54:22;;;;;;;22.77;17.08;;;;;;;13.92;99.27;69950.06;5104030;28;20047;-53